sensor_id;sensor_type;location;lat;lon;timestamp;temperature;humidity
3678;DHT22;1855;50.934;6.958;2022-12-13T00:01:54;-1.80;96.60
3678;DHT22;1855;50.934;6.958;2022-12-13T00:04:23;-1.70;96.70
3678;DHT22;1855;50.934;6.958;2022-12-13T00:06:50;-1.70;96.60
3678;DHT22;1855;50.934;6.958;2022-12-13T00:09:18;-1.80;96.60
3678;DHT22;1855;50.934;6.958;2022-12-13T00:11:45;-1.80;96.60
3678;DHT22;1855;50.934;6.958;2022-12-13T00:14:14;-1.80;96.70
3678;DHT22;1855;50.934;6.958;2022-12-13T00:16:44;-1.90;96.90
3678;DHT22;1855;50.934;6.958;2022-12-13T00:19:11;-1.90;97.00
3678;DHT22;1855;50.934;6.958;2022-12-13T00:21:39;-2.00;97.10
3678;DHT22;1855;50.934;6.958;2022-12-13T00:24:06;-2.00;97.20
3678;DHT22;1855;50.934;6.958;2022-12-13T00:26:33;-2.00;97.30
3678;DHT22;1855;50.934;6.958;2022-12-13T00:29:02;-2.00;97.20
3678;DHT22;1855;50.934;6.958;2022-12-13T00:31:29;-2.00;97.20
3678;DHT22;1855;50.934;6.958;2022-12-13T00:33:57;-2.00;97.10
3678;DHT22;1855;50.934;6.958;2022-12-13T00:36:23;-2.00;97.10
3678;DHT22;1855;50.934;6.958;2022-12-13T00:38:52;-1.90;96.90
3678;DHT22;1855;50.934;6.958;2022-12-13T00:41:27;-1.90;96.70
3678;DHT22;1855;50.934;6.958;2022-12-13T00:43:54;-1.90;96.40
3678;DHT22;1855;50.934;6.958;2022-12-13T00:46:21;-1.90;96.30
3678;DHT22;1855;50.934;6.958;2022-12-13T00:48:49;-1.90;96.40
3678;DHT22;1855;50.934;6.958;2022-12-13T00:51:17;-1.90;96.40
3678;DHT22;1855;50.934;6.958;2022-12-13T00:53:44;-1.90;96.40
3678;DHT22;1855;50.934;6.958;2022-12-13T00:56:14;-1.90;96.20
3678;DHT22;1855;50.934;6.958;2022-12-13T00:58:41;-1.90;96.10
3678;DHT22;1855;50.934;6.958;2022-12-13T01:01:10;-1.90;96.10
3678;DHT22;1855;50.934;6.958;2022-12-13T01:03:38;-1.90;96.00
3678;DHT22;1855;50.934;6.958;2022-12-13T01:06:08;-1.90;95.90
3678;DHT22;1855;50.934;6.958;2022-12-13T01:08:36;-1.90;95.80
3678;DHT22;1855;50.934;6.958;2022-12-13T01:11:03;-1.90;95.80
3678;DHT22;1855;50.934;6.958;2022-12-13T01:13:31;-2.00;95.90
3678;DHT22;1855;50.934;6.958;2022-12-13T01:16:00;-2.00;96.00
3678;DHT22;1855;50.934;6.958;2022-12-13T01:18:26;-2.00;96.00
3678;DHT22;1855;50.934;6.958;2022-12-13T01:20:57;-2.00;95.90
3678;DHT22;1855;50.934;6.958;2022-12-13T01:23:25;-2.00;95.90
3678;DHT22;1855;50.934;6.958;2022-12-13T01:25:51;-2.10;95.90
3678;DHT22;1855;50.934;6.958;2022-12-13T01:28:18;-2.10;96.00
3678;DHT22;1855;50.934;6.958;2022-12-13T01:30:54;-2.10;96.10
3678;DHT22;1855;50.934;6.958;2022-12-13T01:33:22;-2.10;96.10
3678;DHT22;1855;50.934;6.958;2022-12-13T01:35:48;-2.10;95.80
3678;DHT22;1855;50.934;6.958;2022-12-13T01:38:15;-2.10;95.50
3678;DHT22;1855;50.934;6.958;2022-12-13T01:40:44;-2.10;95.30
3678;DHT22;1855;50.934;6.958;2022-12-13T01:43:12;-2.10;95.30
3678;DHT22;1855;50.934;6.958;2022-12-13T01:45:39;-2.20;95.40
3678;DHT22;1855;50.934;6.958;2022-12-13T01:48:10;-2.20;95.60
3678;DHT22;1855;50.934;6.958;2022-12-13T01:50:41;-2.30;95.90
3678;DHT22;1855;50.934;6.958;2022-12-13T01:53:12;-2.30;96.10
3678;DHT22;1855;50.934;6.958;2022-12-13T01:55:43;-2.30;96.20
3678;DHT22;1855;50.934;6.958;2022-12-13T01:58:11;-2.40;96.20
3678;DHT22;1855;50.934;6.958;2022-12-13T02:00:38;-2.40;96.30
3678;DHT22;1855;50.934;6.958;2022-12-13T02:03:07;-2.40;96.30
3678;DHT22;1855;50.934;6.958;2022-12-13T02:05:37;-2.40;96.40
3678;DHT22;1855;50.934;6.958;2022-12-13T02:08:07;-2.50;96.40
3678;DHT22;1855;50.934;6.958;2022-12-13T02:10:35;-2.50;96.40
3678;DHT22;1855;50.934;6.958;2022-12-13T02:13:02;-2.50;96.50
3678;DHT22;1855;50.934;6.958;2022-12-13T02:15:34;-2.50;96.40
3678;DHT22;1855;50.934;6.958;2022-12-13T02:18:28;-2.50;96.00
3678;DHT22;1855;50.934;6.958;2022-12-13T02:21:15;-2.40;95.50
3678;DHT22;1855;50.934;6.958;2022-12-13T02:26:51;-2.50;95.30
3678;DHT22;1855;50.934;6.958;2022-12-13T02:32:22;-2.60;95.40
3678;DHT22;1855;50.934;6.958;2022-12-13T02:34:57;-2.60;95.60
3678;DHT22;1855;50.934;6.958;2022-12-13T02:37:31;-2.60;95.60
3678;DHT22;1855;50.934;6.958;2022-12-13T02:40:06;-2.60;95.50
3678;DHT22;1855;50.934;6.958;2022-12-13T02:42:39;-2.60;95.10
3678;DHT22;1855;50.934;6.958;2022-12-13T02:45:12;-2.60;95.10
3678;DHT22;1855;50.934;6.958;2022-12-13T02:47:42;-2.60;95.10
3678;DHT22;1855;50.934;6.958;2022-12-13T02:50:11;-2.60;94.90
3678;DHT22;1855;50.934;6.958;2022-12-13T02:52:40;-2.60;94.90
3678;DHT22;1855;50.934;6.958;2022-12-13T02:55:10;-2.60;94.90
3678;DHT22;1855;50.934;6.958;2022-12-13T02:57:39;-2.60;95.00
3678;DHT22;1855;50.934;6.958;2022-12-13T03:00:09;-2.70;95.00
3678;DHT22;1855;50.934;6.958;2022-12-13T03:02:46;-2.70;94.90
3678;DHT22;1855;50.934;6.958;2022-12-13T03:05:25;-2.70;94.80
3678;DHT22;1855;50.934;6.958;2022-12-13T03:08:19;-2.70;94.80
3678;DHT22;1855;50.934;6.958;2022-12-13T03:10:55;-2.70;94.70
3678;DHT22;1855;50.934;6.958;2022-12-13T03:13:28;-2.70;94.60
3678;DHT22;1855;50.934;6.958;2022-12-13T03:18:49;-2.80;94.60
3678;DHT22;1855;50.934;6.958;2022-12-13T03:21:17;-2.80;94.50
3678;DHT22;1855;50.934;6.958;2022-12-13T03:23:45;-2.80;94.50
3678;DHT22;1855;50.934;6.958;2022-12-13T03:26:14;-2.90;94.40
3678;DHT22;1855;50.934;6.958;2022-12-13T03:28:41;-2.90;94.50
3678;DHT22;1855;50.934;6.958;2022-12-13T03:31:08;-3.00;94.70
3678;DHT22;1855;50.934;6.958;2022-12-13T03:33:34;-3.00;94.80
3678;DHT22;1855;50.934;6.958;2022-12-13T03:36:05;-3.00;94.80
3678;DHT22;1855;50.934;6.958;2022-12-13T03:38:32;-3.00;94.60
3678;DHT22;1855;50.934;6.958;2022-12-13T03:41:02;-2.90;94.50
3678;DHT22;1855;50.934;6.958;2022-12-13T03:43:29;-2.90;94.30
3678;DHT22;1855;50.934;6.958;2022-12-13T03:45:56;-3.00;94.40
3678;DHT22;1855;50.934;6.958;2022-12-13T03:48:24;-3.00;94.90
3678;DHT22;1855;50.934;6.958;2022-12-13T03:50:52;-3.00;94.50
3678;DHT22;1855;50.934;6.958;2022-12-13T03:53:22;-3.00;94.40
3678;DHT22;1855;50.934;6.958;2022-12-13T03:55:49;-3.00;94.60
3678;DHT22;1855;50.934;6.958;2022-12-13T03:58:16;-3.10;94.70
3678;DHT22;1855;50.934;6.958;2022-12-13T04:00:43;-3.10;94.60
3678;DHT22;1855;50.934;6.958;2022-12-13T04:03:10;-3.10;94.50
3678;DHT22;1855;50.934;6.958;2022-12-13T04:05:37;-3.10;94.40
3678;DHT22;1855;50.934;6.958;2022-12-13T04:08:04;-3.10;94.20
3678;DHT22;1855;50.934;6.958;2022-12-13T04:10:32;-3.10;94.10
3678;DHT22;1855;50.934;6.958;2022-12-13T04:13:00;-3.10;94.10
3678;DHT22;1855;50.934;6.958;2022-12-13T04:15:44;-3.10;94.20
3678;DHT22;1855;50.934;6.958;2022-12-13T04:18:13;-3.20;94.30
3678;DHT22;1855;50.934;6.958;2022-12-13T04:20:40;-3.20;94.30
3678;DHT22;1855;50.934;6.958;2022-12-13T04:23:07;-3.20;94.40
3678;DHT22;1855;50.934;6.958;2022-12-13T04:25:35;-3.20;94.50
3678;DHT22;1855;50.934;6.958;2022-12-13T04:28:02;-3.20;94.40
3678;DHT22;1855;50.934;6.958;2022-12-13T04:30:29;-3.20;94.20
3678;DHT22;1855;50.934;6.958;2022-12-13T04:32:56;-3.30;94.30
3678;DHT22;1855;50.934;6.958;2022-12-13T04:35:22;-3.30;94.40
3678;DHT22;1855;50.934;6.958;2022-12-13T04:37:49;-3.30;94.40
3678;DHT22;1855;50.934;6.958;2022-12-13T04:40:16;-3.30;94.40
3678;DHT22;1855;50.934;6.958;2022-12-13T04:42:44;-3.40;94.50
3678;DHT22;1855;50.934;6.958;2022-12-13T04:45:14;-3.40;94.70
3678;DHT22;1855;50.934;6.958;2022-12-13T04:47:41;-3.50;94.70
3678;DHT22;1855;50.934;6.958;2022-12-13T04:50:08;-3.50;94.80
3678;DHT22;1855;50.934;6.958;2022-12-13T04:52:35;-3.50;94.80
3678;DHT22;1855;50.934;6.958;2022-12-13T04:55:04;-3.60;94.90
3678;DHT22;1855;50.934;6.958;2022-12-13T04:57:31;-3.60;95.00
3678;DHT22;1855;50.934;6.958;2022-12-13T04:59:59;-3.60;95.10
3678;DHT22;1855;50.934;6.958;2022-12-13T05:02:26;-3.60;95.30
3678;DHT22;1855;50.934;6.958;2022-12-13T05:04:53;-3.60;95.30
3678;DHT22;1855;50.934;6.958;2022-12-13T05:07:20;-3.60;95.40
3678;DHT22;1855;50.934;6.958;2022-12-13T05:09:47;-3.60;95.60
3678;DHT22;1855;50.934;6.958;2022-12-13T05:12:14;-3.70;95.50
3678;DHT22;1855;50.934;6.958;2022-12-13T05:14:41;-3.70;95.70
3678;DHT22;1855;50.934;6.958;2022-12-13T05:17:09;-3.70;95.90
3678;DHT22;1855;50.934;6.958;2022-12-13T05:19:35;-3.70;96.10
3678;DHT22;1855;50.934;6.958;2022-12-13T05:22:02;-3.70;96.10
3678;DHT22;1855;50.934;6.958;2022-12-13T05:24:30;-3.70;96.30
3678;DHT22;1855;50.934;6.958;2022-12-13T05:26:57;-3.70;96.60
3678;DHT22;1855;50.934;6.958;2022-12-13T05:29:24;-3.70;96.50
3678;DHT22;1855;50.934;6.958;2022-12-13T05:31:52;-3.60;96.30
3678;DHT22;1855;50.934;6.958;2022-12-13T05:34:20;-3.70;96.30
3678;DHT22;1855;50.934;6.958;2022-12-13T05:36:47;-3.70;96.30
3678;DHT22;1855;50.934;6.958;2022-12-13T05:39:13;-3.70;96.30
3678;DHT22;1855;50.934;6.958;2022-12-13T05:41:40;-3.70;96.30
3678;DHT22;1855;50.934;6.958;2022-12-13T05:44:07;-3.60;96.10
3678;DHT22;1855;50.934;6.958;2022-12-13T05:46:35;-3.70;95.90
3678;DHT22;1855;50.934;6.958;2022-12-13T05:49:01;-3.70;96.00
3678;DHT22;1855;50.934;6.958;2022-12-13T05:51:30;-3.70;95.90
3678;DHT22;1855;50.934;6.958;2022-12-13T05:53:56;-3.70;95.80
3678;DHT22;1855;50.934;6.958;2022-12-13T05:56:23;-3.70;95.70
3678;DHT22;1855;50.934;6.958;2022-12-13T05:58:50;-3.70;95.90
3678;DHT22;1855;50.934;6.958;2022-12-13T06:01:19;-3.70;95.80
3678;DHT22;1855;50.934;6.958;2022-12-13T06:03:45;-3.70;96.10
3678;DHT22;1855;50.934;6.958;2022-12-13T06:06:12;-3.70;95.50
3678;DHT22;1855;50.934;6.958;2022-12-13T06:08:43;-3.70;95.70
3678;DHT22;1855;50.934;6.958;2022-12-13T06:11:10;-3.70;95.70
3678;DHT22;1855;50.934;6.958;2022-12-13T06:13:38;-3.70;95.70
3678;DHT22;1855;50.934;6.958;2022-12-13T06:16:05;-3.70;95.80
3678;DHT22;1855;50.934;6.958;2022-12-13T06:18:33;-3.70;96.00
3678;DHT22;1855;50.934;6.958;2022-12-13T06:21:02;-3.70;96.10
3678;DHT22;1855;50.934;6.958;2022-12-13T06:23:30;-3.70;96.20
3678;DHT22;1855;50.934;6.958;2022-12-13T06:26:01;-3.70;96.30
3678;DHT22;1855;50.934;6.958;2022-12-13T06:28:28;-3.70;96.10
3678;DHT22;1855;50.934;6.958;2022-12-13T06:30:58;-3.70;96.10
3678;DHT22;1855;50.934;6.958;2022-12-13T06:33:25;-3.60;96.10
3678;DHT22;1855;50.934;6.958;2022-12-13T06:35:55;-3.70;96.10
3678;DHT22;1855;50.934;6.958;2022-12-13T06:38:22;-3.60;96.00
3678;DHT22;1855;50.934;6.958;2022-12-13T06:40:49;-3.60;95.90
3678;DHT22;1855;50.934;6.958;2022-12-13T06:43:18;-3.60;95.90
3678;DHT22;1855;50.934;6.958;2022-12-13T06:45:45;-3.60;95.90
3678;DHT22;1855;50.934;6.958;2022-12-13T06:48:12;-3.60;95.80
3678;DHT22;1855;50.934;6.958;2022-12-13T06:50:39;-3.60;95.80
3678;DHT22;1855;50.934;6.958;2022-12-13T06:53:06;-3.60;95.90
3678;DHT22;1855;50.934;6.958;2022-12-13T06:55:34;-3.50;95.80
3678;DHT22;1855;50.934;6.958;2022-12-13T06:58:01;-3.50;95.60
3678;DHT22;1855;50.934;6.958;2022-12-13T07:00:30;-3.60;95.80
3678;DHT22;1855;50.934;6.958;2022-12-13T07:02:57;-3.50;95.70
3678;DHT22;1855;50.934;6.958;2022-12-13T07:05:23;-3.50;95.60
3678;DHT22;1855;50.934;6.958;2022-12-13T07:07:52;-3.50;95.30
3678;DHT22;1855;50.934;6.958;2022-12-13T07:10:19;-3.50;95.20
3678;DHT22;1855;50.934;6.958;2022-12-13T07:12:45;-3.50;94.90
3678;DHT22;1855;50.934;6.958;2022-12-13T07:15:12;-3.60;94.80
3678;DHT22;1855;50.934;6.958;2022-12-13T07:17:40;-3.60;95.00
3678;DHT22;1855;50.934;6.958;2022-12-13T07:20:09;-3.60;94.90
3678;DHT22;1855;50.934;6.958;2022-12-13T07:22:38;-3.60;95.20
3678;DHT22;1855;50.934;6.958;2022-12-13T07:25:05;-3.60;94.90
3678;DHT22;1855;50.934;6.958;2022-12-13T07:27:32;-3.60;94.90
3678;DHT22;1855;50.934;6.958;2022-12-13T07:29:59;-3.70;95.00
3678;DHT22;1855;50.934;6.958;2022-12-13T07:32:27;-3.70;94.90
3678;DHT22;1855;50.934;6.958;2022-12-13T07:34:55;-3.70;94.60
3678;DHT22;1855;50.934;6.958;2022-12-13T07:37:22;-3.70;94.60
3678;DHT22;1855;50.934;6.958;2022-12-13T07:39:49;-3.70;94.60
3678;DHT22;1855;50.934;6.958;2022-12-13T07:42:15;-3.70;94.60
3678;DHT22;1855;50.934;6.958;2022-12-13T07:44:42;-3.80;94.60
3678;DHT22;1855;50.934;6.958;2022-12-13T07:47:09;-3.70;94.80
3678;DHT22;1855;50.934;6.958;2022-12-13T07:49:35;-3.70;94.90
3678;DHT22;1855;50.934;6.958;2022-12-13T07:52:04;-3.70;95.00
3678;DHT22;1855;50.934;6.958;2022-12-13T07:54:30;-3.70;94.80
3678;DHT22;1855;50.934;6.958;2022-12-13T07:56:58;-3.70;94.80
3678;DHT22;1855;50.934;6.958;2022-12-13T07:59:25;-3.70;94.80
3678;DHT22;1855;50.934;6.958;2022-12-13T08:01:52;-3.60;94.80
3678;DHT22;1855;50.934;6.958;2022-12-13T08:04:18;-3.60;94.80
3678;DHT22;1855;50.934;6.958;2022-12-13T08:06:45;-3.60;94.90
3678;DHT22;1855;50.934;6.958;2022-12-13T08:09:13;-3.50;95.00
3678;DHT22;1855;50.934;6.958;2022-12-13T08:11:40;-3.50;94.90
3678;DHT22;1855;50.934;6.958;2022-12-13T08:14:07;-3.40;94.70
3678;DHT22;1855;50.934;6.958;2022-12-13T08:16:34;-3.30;94.50
3678;DHT22;1855;50.934;6.958;2022-12-13T08:19:00;-3.30;94.70
3678;DHT22;1855;50.934;6.958;2022-12-13T08:21:27;-3.20;94.60
3678;DHT22;1855;50.934;6.958;2022-12-13T08:23:54;-3.00;94.40
3678;DHT22;1855;50.934;6.958;2022-12-13T08:26:22;-2.90;94.50
3678;DHT22;1855;50.934;6.958;2022-12-13T08:28:49;-2.80;94.40
3678;DHT22;1855;50.934;6.958;2022-12-13T08:31:16;-2.50;94.20
3678;DHT22;1855;50.934;6.958;2022-12-13T08:33:42;-2.40;93.90
3678;DHT22;1855;50.934;6.958;2022-12-13T08:36:13;-2.20;93.60
3678;DHT22;1855;50.934;6.958;2022-12-13T08:38:42;-2.00;93.50
3678;DHT22;1855;50.934;6.958;2022-12-13T08:41:10;-1.80;92.90
3678;DHT22;1855;50.934;6.958;2022-12-13T08:43:38;-1.70;91.80
3678;DHT22;1855;50.934;6.958;2022-12-13T08:46:05;-1.60;91.60
3678;DHT22;1855;50.934;6.958;2022-12-13T08:48:32;-1.50;91.60
3678;DHT22;1855;50.934;6.958;2022-12-13T08:51:00;-1.30;91.20
3678;DHT22;1855;50.934;6.958;2022-12-13T08:53:28;-1.20;90.10
3678;DHT22;1855;50.934;6.958;2022-12-13T08:55:58;-1.20;90.00
3678;DHT22;1855;50.934;6.958;2022-12-13T08:58:25;-1.10;90.10
3678;DHT22;1855;50.934;6.958;2022-12-13T09:00:53;-1.00;89.60
3678;DHT22;1855;50.934;6.958;2022-12-13T09:03:20;-0.90;90.00
3678;DHT22;1855;50.934;6.958;2022-12-13T09:05:47;-0.70;88.30
3678;DHT22;1855;50.934;6.958;2022-12-13T09:08:14;-0.70;86.70
3678;DHT22;1855;50.934;6.958;2022-12-13T09:10:40;-0.70;86.10
3678;DHT22;1855;50.934;6.958;2022-12-13T09:13:07;-0.70;85.50
3678;DHT22;1855;50.934;6.958;2022-12-13T09:15:38;-0.60;86.90
3678;DHT22;1855;50.934;6.958;2022-12-13T09:18:06;-0.40;88.00
3678;DHT22;1855;50.934;6.958;2022-12-13T09:20:33;-0.20;85.90
3678;DHT22;1855;50.934;6.958;2022-12-13T09:23:02;0.00;85.70
3678;DHT22;1855;50.934;6.958;2022-12-13T09:25:30;0.10;85.30
3678;DHT22;1855;50.934;6.958;2022-12-13T09:27:57;0.30;83.00
3678;DHT22;1855;50.934;6.958;2022-12-13T09:30:26;0.30;81.60
3678;DHT22;1855;50.934;6.958;2022-12-13T09:32:54;0.40;80.50
3678;DHT22;1855;50.934;6.958;2022-12-13T09:35:22;0.40;79.50
3678;DHT22;1855;50.934;6.958;2022-12-13T09:37:49;0.40;79.30
3678;DHT22;1855;50.934;6.958;2022-12-13T09:40:19;0.30;79.50
3678;DHT22;1855;50.934;6.958;2022-12-13T09:42:49;0.50;80.60
3678;DHT22;1855;50.934;6.958;2022-12-13T09:45:17;0.80;78.60
3678;DHT22;1855;50.934;6.958;2022-12-13T09:47:46;0.80;77.30
3678;DHT22;1855;50.934;6.958;2022-12-13T09:50:18;0.80;76.30
3678;DHT22;1855;50.934;6.958;2022-12-13T09:52:47;0.80;76.60
3678;DHT22;1855;50.934;6.958;2022-12-13T09:55:21;0.90;76.10
3678;DHT22;1855;50.934;6.958;2022-12-13T09:57:49;1.00;76.30
3678;DHT22;1855;50.934;6.958;2022-12-13T10:00:18;1.10;77.10
3678;DHT22;1855;50.934;6.958;2022-12-13T10:02:46;1.30;76.20
3678;DHT22;1855;50.934;6.958;2022-12-13T10:05:17;1.50;75.00
3678;DHT22;1855;50.934;6.958;2022-12-13T10:07:47;1.60;73.30
3678;DHT22;1855;50.934;6.958;2022-12-13T10:10:14;1.50;72.10
3678;DHT22;1855;50.934;6.958;2022-12-13T10:12:42;1.40;72.10
3678;DHT22;1855;50.934;6.958;2022-12-13T10:15:12;1.30;72.30
3678;DHT22;1855;50.934;6.958;2022-12-13T10:17:42;1.10;71.70
3678;DHT22;1855;50.934;6.958;2022-12-13T10:20:16;1.10;73.70
3678;DHT22;1855;50.934;6.958;2022-12-13T10:22:43;1.10;74.20
3678;DHT22;1855;50.934;6.958;2022-12-13T10:25:12;1.30;74.80
3678;DHT22;1855;50.934;6.958;2022-12-13T10:27:41;1.50;73.50
3678;DHT22;1855;50.934;6.958;2022-12-13T10:30:10;1.80;71.70
3678;DHT22;1855;50.934;6.958;2022-12-13T10:32:51;2.00;71.30
3678;DHT22;1855;50.934;6.958;2022-12-13T10:35:24;2.00;69.80
3678;DHT22;1855;50.934;6.958;2022-12-13T10:37:51;1.80;69.90
3678;DHT22;1855;50.934;6.958;2022-12-13T10:40:34;1.90;70.10
3678;DHT22;1855;50.934;6.958;2022-12-13T10:43:11;2.10;70.40
3678;DHT22;1855;50.934;6.958;2022-12-13T10:45:38;2.20;68.70
3678;DHT22;1855;50.934;6.958;2022-12-13T10:48:10;2.00;68.30
3678;DHT22;1855;50.934;6.958;2022-12-13T10:50:42;1.80;70.10
3678;DHT22;1855;50.934;6.958;2022-12-13T10:53:16;1.90;70.30
3678;DHT22;1855;50.934;6.958;2022-12-13T10:55:45;2.00;69.90
3678;DHT22;1855;50.934;6.958;2022-12-13T10:58:19;2.20;69.40
3678;DHT22;1855;50.934;6.958;2022-12-13T11:00:46;2.20;68.70
3678;DHT22;1855;50.934;6.958;2022-12-13T11:03:28;2.20;68.30
3678;DHT22;1855;50.934;6.958;2022-12-13T11:06:01;2.40;67.90
3678;DHT22;1855;50.934;6.958;2022-12-13T11:08:28;2.50;66.90
3678;DHT22;1855;50.934;6.958;2022-12-13T11:10:58;2.50;65.80
3678;DHT22;1855;50.934;6.958;2022-12-13T11:13:32;2.50;66.60
3678;DHT22;1855;50.934;6.958;2022-12-13T11:16:02;2.40;66.20
3678;DHT22;1855;50.934;6.958;2022-12-13T11:18:33;2.30;67.10
3678;DHT22;1855;50.934;6.958;2022-12-13T11:21:03;2.20;66.80
3678;DHT22;1855;50.934;6.958;2022-12-13T11:23:34;2.10;66.70
3678;DHT22;1855;50.934;6.958;2022-12-13T11:26:08;1.90;67.20
3678;DHT22;1855;50.934;6.958;2022-12-13T11:29:05;1.90;67.90
3678;DHT22;1855;50.934;6.958;2022-12-13T11:31:37;1.90;67.80
3678;DHT22;1855;50.934;6.958;2022-12-13T11:34:14;1.90;67.30
3678;DHT22;1855;50.934;6.958;2022-12-13T11:36:49;1.90;67.40
3678;DHT22;1855;50.934;6.958;2022-12-13T11:39:19;2.10;66.80
3678;DHT22;1855;50.934;6.958;2022-12-13T11:41:56;2.30;67.00
3678;DHT22;1855;50.934;6.958;2022-12-13T11:44:34;2.60;66.00
3678;DHT22;1855;50.934;6.958;2022-12-13T11:47:04;2.70;64.60
3678;DHT22;1855;50.934;6.958;2022-12-13T11:49:37;2.50;64.00
3678;DHT22;1855;50.934;6.958;2022-12-13T11:52:12;2.40;64.00
3678;DHT22;1855;50.934;6.958;2022-12-13T11:54:47;2.40;65.20
3678;DHT22;1855;50.934;6.958;2022-12-13T11:57:28;2.70;64.90
3678;DHT22;1855;50.934;6.958;2022-12-13T12:00:00;2.90;63.80
3678;DHT22;1855;50.934;6.958;2022-12-13T12:02:33;3.20;62.20
3678;DHT22;1855;50.934;6.958;2022-12-13T12:05:03;3.50;62.30
3678;DHT22;1855;50.934;6.958;2022-12-13T12:07:34;3.90;60.80
3678;DHT22;1855;50.934;6.958;2022-12-13T12:10:14;4.10;59.70
3678;DHT22;1855;50.934;6.958;2022-12-13T12:12:50;3.90;59.30
3678;DHT22;1855;50.934;6.958;2022-12-13T12:15:25;3.70;59.90
3678;DHT22;1855;50.934;6.958;2022-12-13T12:17:54;3.70;59.60
3678;DHT22;1855;50.934;6.958;2022-12-13T12:20:25;3.60;60.60
3678;DHT22;1855;50.934;6.958;2022-12-13T12:23:01;3.80;60.70
3678;DHT22;1855;50.934;6.958;2022-12-13T12:25:37;4.00;60.10
3678;DHT22;1855;50.934;6.958;2022-12-13T12:28:16;4.10;59.50
3678;DHT22;1855;50.934;6.958;2022-12-13T12:30:51;4.00;59.60
3678;DHT22;1855;50.934;6.958;2022-12-13T12:33:28;3.80;59.60
3678;DHT22;1855;50.934;6.958;2022-12-13T12:36:06;3.50;60.70
3678;DHT22;1855;50.934;6.958;2022-12-13T12:38:47;3.30;61.50
3678;DHT22;1855;50.934;6.958;2022-12-13T12:41:38;3.30;60.40
3678;DHT22;1855;50.934;6.958;2022-12-13T12:44:17;3.20;60.40
3678;DHT22;1855;50.934;6.958;2022-12-13T12:47:01;2.90;60.80
3678;DHT22;1855;50.934;6.958;2022-12-13T12:52:47;2.40;62.30
3678;DHT22;1855;50.934;6.958;2022-12-13T12:55:21;2.20;63.90
3678;DHT22;1855;50.934;6.958;2022-12-13T12:57:57;2.20;64.60
3678;DHT22;1855;50.934;6.958;2022-12-13T13:00:28;2.40;64.40
3678;DHT22;1855;50.934;6.958;2022-12-13T13:02:59;2.50;64.20
3678;DHT22;1855;50.934;6.958;2022-12-13T13:05:34;2.60;62.90
3678;DHT22;1855;50.934;6.958;2022-12-13T13:08:10;2.70;63.20
3678;DHT22;1855;50.934;6.958;2022-12-13T13:10:40;2.90;62.10
3678;DHT22;1855;50.934;6.958;2022-12-13T13:13:32;2.90;60.90
3678;DHT22;1855;50.934;6.958;2022-12-13T13:16:01;2.80;61.70
3678;DHT22;1855;50.934;6.958;2022-12-13T13:18:46;2.70;61.80
3678;DHT22;1855;50.934;6.958;2022-12-13T13:21:41;2.70;62.00
3678;DHT22;1855;50.934;6.958;2022-12-13T13:24:20;2.60;62.10
3678;DHT22;1855;50.934;6.958;2022-12-13T13:26:49;2.40;62.80
3678;DHT22;1855;50.934;6.958;2022-12-13T13:29:28;2.30;63.40
3678;DHT22;1855;50.934;6.958;2022-12-13T13:31:58;2.20;63.60
3678;DHT22;1855;50.934;6.958;2022-12-13T13:34:26;2.10;63.80
3678;DHT22;1855;50.934;6.958;2022-12-13T13:36:54;1.90;64.40
3678;DHT22;1855;50.934;6.958;2022-12-13T13:39:57;1.70;65.00
3678;DHT22;1855;50.934;6.958;2022-12-13T13:42:25;1.60;66.70
3678;DHT22;1855;50.934;6.958;2022-12-13T13:45:14;1.50;67.40
3678;DHT22;1855;50.934;6.958;2022-12-13T13:47:47;1.50;67.50
3678;DHT22;1855;50.934;6.958;2022-12-13T13:56:59;1.40;69.10
3678;DHT22;1855;50.934;6.958;2022-12-13T14:03:15;1.40;69.60
3678;DHT22;1855;50.934;6.958;2022-12-13T14:06:17;1.30;70.40
3678;DHT22;1855;50.934;6.958;2022-12-13T14:09:04;1.40;70.50
3678;DHT22;1855;50.934;6.958;2022-12-13T14:12:11;1.40;70.80
3678;DHT22;1855;50.934;6.958;2022-12-13T14:20:52;1.30;70.70
3678;DHT22;1855;50.934;6.958;2022-12-13T14:23:30;1.30;71.20
3678;DHT22;1855;50.934;6.958;2022-12-13T14:26:18;1.20;71.90
3678;DHT22;1855;50.934;6.958;2022-12-13T14:28:48;1.10;72.10
3678;DHT22;1855;50.934;6.958;2022-12-13T14:31:19;1.10;72.80
3678;DHT22;1855;50.934;6.958;2022-12-13T14:33:46;1.10;73.30
3678;DHT22;1855;50.934;6.958;2022-12-13T14:36:17;1.10;72.90
3678;DHT22;1855;50.934;6.958;2022-12-13T14:38:44;1.00;73.50
3678;DHT22;1855;50.934;6.958;2022-12-13T14:41:16;1.00;73.90
3678;DHT22;1855;50.934;6.958;2022-12-13T14:43:44;0.90;74.30
3678;DHT22;1855;50.934;6.958;2022-12-13T14:46:13;0.90;74.40
3678;DHT22;1855;50.934;6.958;2022-12-13T14:48:44;0.80;74.80
3678;DHT22;1855;50.934;6.958;2022-12-13T14:51:31;0.80;74.90
3678;DHT22;1855;50.934;6.958;2022-12-13T14:53:59;0.70;75.30
3678;DHT22;1855;50.934;6.958;2022-12-13T14:56:27;0.70;75.80
3678;DHT22;1855;50.934;6.958;2022-12-13T14:58:56;0.70;76.20
3678;DHT22;1855;50.934;6.958;2022-12-13T15:01:25;0.60;75.70
3678;DHT22;1855;50.934;6.958;2022-12-13T15:03:52;0.70;75.70
3678;DHT22;1855;50.934;6.958;2022-12-13T15:06:19;0.60;76.70
3678;DHT22;1855;50.934;6.958;2022-12-13T15:08:48;0.60;76.30
3678;DHT22;1855;50.934;6.958;2022-12-13T15:11:15;0.50;76.50
3678;DHT22;1855;50.934;6.958;2022-12-13T15:13:43;0.50;76.00
3678;DHT22;1855;50.934;6.958;2022-12-13T15:16:17;0.50;75.40
3678;DHT22;1855;50.934;6.958;2022-12-13T15:18:47;0.50;75.60
3678;DHT22;1855;50.934;6.958;2022-12-13T15:21:21;0.40;75.40
3678;DHT22;1855;50.934;6.958;2022-12-13T15:23:50;0.40;75.60
3678;DHT22;1855;50.934;6.958;2022-12-13T15:26:20;0.40;75.40
3678;DHT22;1855;50.934;6.958;2022-12-13T15:28:52;0.30;75.00
3678;DHT22;1855;50.934;6.958;2022-12-13T15:31:19;0.30;74.80
3678;DHT22;1855;50.934;6.958;2022-12-13T15:33:46;0.30;74.50
3678;DHT22;1855;50.934;6.958;2022-12-13T15:36:16;0.20;75.70
3678;DHT22;1855;50.934;6.958;2022-12-13T15:38:58;0.20;74.80
3678;DHT22;1855;50.934;6.958;2022-12-13T15:41:28;0.20;74.50
3678;DHT22;1855;50.934;6.958;2022-12-13T15:43:58;0.10;74.40
3678;DHT22;1855;50.934;6.958;2022-12-13T15:46:28;0.10;74.80
3678;DHT22;1855;50.934;6.958;2022-12-13T15:48:57;0.10;74.90
3678;DHT22;1855;50.934;6.958;2022-12-13T15:51:25;0.10;74.90
3678;DHT22;1855;50.934;6.958;2022-12-13T15:54:05;0.10;74.90
3678;DHT22;1855;50.934;6.958;2022-12-13T15:56:34;0.10;74.20
3678;DHT22;1855;50.934;6.958;2022-12-13T15:59:01;0.10;74.60
3678;DHT22;1855;50.934;6.958;2022-12-13T16:01:30;0.00;74.80
3678;DHT22;1855;50.934;6.958;2022-12-13T16:03:58;0.00;74.80
3678;DHT22;1855;50.934;6.958;2022-12-13T16:06:29;0.00;75.30
3678;DHT22;1855;50.934;6.958;2022-12-13T16:08:58;-0.10;75.20
3678;DHT22;1855;50.934;6.958;2022-12-13T16:11:30;-0.10;75.00
3678;DHT22;1855;50.934;6.958;2022-12-13T16:14:26;-0.10;75.30
3678;DHT22;1855;50.934;6.958;2022-12-13T16:16:54;-0.20;75.70
3678;DHT22;1855;50.934;6.958;2022-12-13T16:19:21;-0.20;76.00
3678;DHT22;1855;50.934;6.958;2022-12-13T16:21:48;-0.20;76.30
3678;DHT22;1855;50.934;6.958;2022-12-13T16:24:15;-0.20;76.70
3678;DHT22;1855;50.934;6.958;2022-12-13T16:26:45;-0.20;76.30
3678;DHT22;1855;50.934;6.958;2022-12-13T16:29:14;-0.20;76.30
3678;DHT22;1855;50.934;6.958;2022-12-13T16:31:42;-0.30;76.40
3678;DHT22;1855;50.934;6.958;2022-12-13T16:34:09;-0.20;76.70
3678;DHT22;1855;50.934;6.958;2022-12-13T16:36:36;-0.20;77.10
3678;DHT22;1855;50.934;6.958;2022-12-13T16:39:04;-0.20;77.40
3678;DHT22;1855;50.934;6.958;2022-12-13T16:41:34;-0.20;76.80
3678;DHT22;1855;50.934;6.958;2022-12-13T16:44:05;-0.20;76.60
3678;DHT22;1855;50.934;6.958;2022-12-13T16:46:33;-0.30;76.20
3678;DHT22;1855;50.934;6.958;2022-12-13T16:49:05;-0.30;76.40
3678;DHT22;1855;50.934;6.958;2022-12-13T16:51:34;-0.30;76.80
3678;DHT22;1855;50.934;6.958;2022-12-13T16:54:01;-0.30;76.60
3678;DHT22;1855;50.934;6.958;2022-12-13T16:56:27;-0.40;76.70